sensor_id;sensor_type;location;lat;lon;timestamp;pressure;altitude;pressure_sealevel;temperature;humidity
13952;BME280;39535;52.192;9.886;2022-07-29T00:00:18;101137.56;;;18.52;47.29
13952;BME280;39535;52.192;9.886;2022-07-29T00:02:46;101143.63;;;18.54;47.24
13952;BME280;39535;52.192;9.886;2022-07-29T00:05:13;101139.31;;;18.51;47.43
13952;BME280;39535;52.192;9.886;2022-07-29T00:07:39;101141.16;;;18.49;47.64
13952;BME280;39535;52.192;9.886;2022-07-29T00:10:07;101133.47;;;18.43;47.88
13952;BME280;39535;52.192;9.886;2022-07-29T00:12:33;101131.81;;;18.40;47.72
13952;BME280;39535;52.192;9.886;2022-07-29T00:15:01;101124.75;;;18.41;47.78
13952;BME280;39535;52.192;9.886;2022-07-29T00:17:27;101123.09;;;18.38;48.05
13952;BME280;39535;52.192;9.886;2022-07-29T00:19:55;101121.38;;;18.37;47.98
13952;BME280;39535;52.192;9.886;2022-07-29T00:22:22;101120.56;;;18.35;48.25
13952;BME280;39535;52.192;9.886;2022-07-29T00:24:48;101115.38;;;18.34;48.17
13952;BME280;39535;52.192;9.886;2022-07-29T00:27:15;101113.69;;;18.31;48.27
13952;BME280;39535;52.192;9.886;2022-07-29T00:29:41;101104.00;;;18.32;48.42
13952;BME280;39535;52.192;9.886;2022-07-29T00:32:08;101098.81;;;18.29;48.36
13952;BME280;39535;52.192;9.886;2022-07-29T00:34:34;101090.16;;;18.25;48.53
13952;BME280;39535;52.192;9.886;2022-07-29T00:37:22;101088.44;;;18.24;48.63
13952;BME280;39535;52.192;9.886;2022-07-29T00:39:49;101093.03;;;18.19;48.65
13952;BME280;39535;52.192;9.886;2022-07-29T00:42:15;101081.63;;;18.18;48.80
13952;BME280;39535;52.192;9.886;2022-07-29T00:44:43;101071.09;;;18.17;48.85
13952;BME280;39535;52.192;9.886;2022-07-29T00:47:10;101070.25;;;18.16;49.05
13952;BME280;39535;52.192;9.886;2022-07-29T00:49:38;101068.03;;;18.05;49.05
13952;BME280;39535;52.192;9.886;2022-07-29T00:52:07;101061.88;;;18.05;49.47
13952;BME280;39535;52.192;9.886;2022-07-29T00:54:35;101057.72;;;17.99;49.43
13952;BME280;39535;52.192;9.886;2022-07-29T00:57:06;101043.69;;;17.97;49.47
13952;BME280;39535;52.192;9.886;2022-07-29T00:59:32;101031.53;;;17.93;49.71
13952;BME280;39535;52.192;9.886;2022-07-29T01:01:59;101030.69;;;17.93;49.82
13952;BME280;39535;52.192;9.886;2022-07-29T01:04:26;101029.88;;;17.91;49.71
13952;BME280;39535;52.192;9.886;2022-07-29T01:06:53;101020.31;;;17.88;49.88
13952;BME280;39535;52.192;9.886;2022-07-29T01:09:21;101018.63;;;17.85;49.86
13952;BME280;39535;52.192;9.886;2022-07-29T01:11:50;101014.28;;;17.84;50.05
13952;BME280;39535;52.192;9.886;2022-07-29T01:14:16;101006.59;;;17.78;50.10
13952;BME280;39535;52.192;9.886;2022-07-29T01:16:47;100994.28;;;17.77;50.26
13952;BME280;39535;52.192;9.886;2022-07-29T01:19:41;100997.19;;;17.71;50.51
13952;BME280;39535;52.192;9.886;2022-07-29T01:22:23;100985.81;;;17.69;50.56
13952;BME280;39535;52.192;9.886;2022-07-29T01:25:03;100972.66;;;17.67;50.92
13952;BME280;39535;52.192;9.886;2022-07-29T01:27:45;100970.22;;;17.63;50.94
13952;BME280;39535;52.192;9.886;2022-07-29T01:30:18;100958.13;;;17.57;51.10
13952;BME280;39535;52.192;9.886;2022-07-29T01:32:50;100967.84;;;17.57;51.00
13952;BME280;39535;52.192;9.886;2022-07-29T01:35:24;100964.34;;;17.56;51.10
13952;BME280;39535;52.192;9.886;2022-07-29T01:37:55;100954.75;;;17.54;51.21
13952;BME280;39535;52.192;9.886;2022-07-29T01:40:27;100954.75;;;17.54;51.08
13952;BME280;39535;52.192;9.886;2022-07-29T01:42:57;100957.53;;;17.51;51.21
13952;BME280;39535;52.192;9.886;2022-07-29T01:45:28;100955.91;;;17.46;51.39
13952;BME280;39535;52.192;9.886;2022-07-29T01:48:02;100948.91;;;17.45;51.44
13952;BME280;39535;52.192;9.886;2022-07-29T01:50:33;100954.44;;;17.39;51.53
13952;BME280;39535;52.192;9.886;2022-07-29T01:53:02;100950.13;;;17.37;51.60
13952;BME280;39535;52.192;9.886;2022-07-29T01:55:34;100945.97;;;17.31;51.84
13952;BME280;39535;52.192;9.886;2022-07-29T01:58:03;100941.72;;;17.27;52.00
13952;BME280;39535;52.192;9.886;2022-07-29T02:00:33;100938.34;;;17.23;52.18
13952;BME280;39535;52.192;9.886;2022-07-29T02:03:03;100929.56;;;17.23;52.29
13952;BME280;39535;52.192;9.886;2022-07-29T02:05:32;100921.81;;;17.18;52.37
13952;BME280;39535;52.192;9.886;2022-07-29T02:08:01;100916.66;;;17.15;52.53
13952;BME280;39535;52.192;9.886;2022-07-29T02:10:30;100910.66;;;17.12;52.71
13952;BME280;39535;52.192;9.886;2022-07-29T02:12:58;100902.03;;;17.06;52.71
13952;BME280;39535;52.192;9.886;2022-07-29T02:15:27;100892.53;;;17.02;53.05
13952;BME280;39535;52.192;9.886;2022-07-29T02:17:58;100895.09;;;17.04;53.18
13952;BME280;39535;52.192;9.886;2022-07-29T02:20:26;100888.22;;;17.00;53.27
13952;BME280;39535;52.192;9.886;2022-07-29T02:22:55;100880.28;;;17.01;52.94
13952;BME280;39535;52.192;9.886;2022-07-29T02:25:22;100877.75;;;16.98;53.45
13952;BME280;39535;52.192;9.886;2022-07-29T02:27:51;100865.34;;;17.00;53.64
13952;BME280;39535;52.192;9.886;2022-07-29T02:30:19;100877.63;;;17.01;53.32
13952;BME280;39535;52.192;9.886;2022-07-29T02:32:46;100876.88;;;16.98;53.14
13952;BME280;39535;52.192;9.886;2022-07-29T02:35:16;100878.78;;;16.94;53.45
13952;BME280;39535;52.192;9.886;2022-07-29T02:37:44;100871.06;;;16.90;53.57
13952;BME280;39535;52.192;9.886;2022-07-29T02:40:33;100864.94;;;16.89;53.62
13952;BME280;39535;52.192;9.886;2022-07-29T02:43:01;100867.56;;;16.89;53.84
13952;BME280;39535;52.192;9.886;2022-07-29T02:45:29;100868.47;;;16.88;53.98
13952;BME280;39535;52.192;9.886;2022-07-29T02:47:57;100870.25;;;16.87;53.82
13952;BME280;39535;52.192;9.886;2022-07-29T02:50:32;100858.91;;;16.85;53.94
13952;BME280;39535;52.192;9.886;2022-07-29T02:53:02;100858.19;;;16.80;53.89
13952;BME280;39535;52.192;9.886;2022-07-29T02:55:33;100855.72;;;16.76;54.12
13952;BME280;39535;52.192;9.886;2022-07-29T02:58:07;100854.78;;;16.77;53.92
13952;BME280;39535;52.192;9.886;2022-07-29T03:00:37;100853.84;;;16.79;53.84
13952;BME280;39535;52.192;9.886;2022-07-29T03:03:08;100848.72;;;16.75;54.02
13952;BME280;39535;52.192;9.886;2022-07-29T03:05:39;100843.44;;;16.75;54.02
13952;BME280;39535;52.192;9.886;2022-07-29T03:08:08;100845.06;;;16.79;54.43
13952;BME280;39535;52.192;9.886;2022-07-29T03:10:36;100844.19;;;16.78;54.11
13952;BME280;39535;52.192;9.886;2022-07-29T03:13:04;100841.69;;;16.75;54.34
13952;BME280;39535;52.192;9.886;2022-07-29T03:15:31;100838.25;;;16.73;54.38
13952;BME280;39535;52.192;9.886;2022-07-29T03:17:58;100838.25;;;16.73;54.29
13952;BME280;39535;52.192;9.886;2022-07-29T03:20:26;100840.09;;;16.71;54.22
13952;BME280;39535;52.192;9.886;2022-07-29T03:22:54;100846.31;;;16.68;54.39
13952;BME280;39535;52.192;9.886;2022-07-29T03:25:20;100838.53;;;16.65;54.41
13952;BME280;39535;52.192;9.886;2022-07-29T03:27:47;100842.09;;;16.64;54.40
13952;BME280;39535;52.192;9.886;2022-07-29T03:30:14;100835.91;;;16.65;54.46
13952;BME280;39535;52.192;9.886;2022-07-29T03:32:41;100835.06;;;16.65;54.28
13952;BME280;39535;52.192;9.886;2022-07-29T03:35:08;100834.88;;;16.70;54.27
13952;BME280;39535;52.192;9.886;2022-07-29T03:37:35;100835.16;;;16.62;54.50
13952;BME280;39535;52.192;9.886;2022-07-29T03:40:07;100841.34;;;16.61;54.52
13952;BME280;39535;52.192;9.886;2022-07-29T03:42:36;100834.13;;;16.66;54.48
13952;BME280;39535;52.192;9.886;2022-07-29T03:45:07;100843.88;;;16.64;54.58
13952;BME280;39535;52.192;9.886;2022-07-29T03:47:38;100839.63;;;16.60;54.62
13952;BME280;39535;52.192;9.886;2022-07-29T03:50:07;100834.53;;;16.55;54.88
13952;BME280;39535;52.192;9.886;2022-07-29T03:52:35;100833.59;;;16.56;54.99
13952;BME280;39535;52.192;9.886;2022-07-29T03:55:04;100834.53;;;16.55;54.99
13952;BME280;39535;52.192;9.886;2022-07-29T03:57:31;100828.53;;;16.52;55.09
13952;BME280;39535;52.192;9.886;2022-07-29T03:59:59;100822.41;;;16.51;55.12
13952;BME280;39535;52.192;9.886;2022-07-29T04:02:27;100817.97;;;16.52;55.12
13952;BME280;39535;52.192;9.886;2022-07-29T04:04:54;100818.88;;;16.51;55.10
13952;BME280;39535;52.192;9.886;2022-07-29T04:07:20;100822.31;;;16.53;55.06
13952;BME280;39535;52.192;9.886;2022-07-29T04:09:46;100826.91;;;16.47;55.50
13952;BME280;39535;52.192;9.886;2022-07-29T04:12:14;100822.56;;;16.46;55.43
13952;BME280;39535;52.192;9.886;2022-07-29T04:14:41;100820.91;;;16.44;55.88
13952;BME280;39535;52.192;9.886;2022-07-29T04:17:07;100818.22;;;16.45;55.81
13952;BME280;39535;52.192;9.886;2022-07-29T04:19:34;100815.63;;;16.44;55.69
13952;BME280;39535;52.192;9.886;2022-07-29T04:22:01;100819.16;;;16.43;55.55
13952;BME280;39535;52.192;9.886;2022-07-29T04:24:27;100814.06;;;16.38;56.00
13952;BME280;39535;52.192;9.886;2022-07-29T04:26:54;100815.81;;;16.39;55.70
13952;BME280;39535;52.192;9.886;2022-07-29T04:29:22;100813.84;;;16.44;55.72
13952;BME280;39535;52.192;9.886;2022-07-29T04:31:48;100806.78;;;16.45;55.96
13952;BME280;39535;52.192;9.886;2022-07-29T04:34:15;100814.69;;;16.45;55.87
13952;BME280;39535;52.192;9.886;2022-07-29T04:36:41;100816.44;;;16.46;55.82
13952;BME280;39535;52.192;9.886;2022-07-29T04:39:08;100819.97;;;16.45;56.02
13952;BME280;39535;52.192;9.886;2022-07-29T04:41:35;100818.13;;;16.47;55.90
13952;BME280;39535;52.192;9.886;2022-07-29T04:44:02;100816.25;;;16.51;55.85
13952;BME280;39535;52.192;9.886;2022-07-29T04:46:31;100823.19;;;16.53;55.93
13952;BME280;39535;52.192;9.886;2022-07-29T04:48:58;100824.09;;;16.52;56.17
13952;BME280;39535;52.192;9.886;2022-07-29T04:51:24;100823.19;;;16.53;56.05
13952;BME280;39535;52.192;9.886;2022-07-29T04:53:51;100828.47;;;16.53;56.20
13952;BME280;39535;52.192;9.886;2022-07-29T04:56:17;100827.50;;;16.56;56.05
13952;BME280;39535;52.192;9.886;2022-07-29T04:58:43;100830.22;;;16.53;55.91
13952;BME280;39535;52.192;9.886;2022-07-29T05:01:10;100830.94;;;16.58;55.83
13952;BME280;39535;52.192;9.886;2022-07-29T05:03:38;100837.63;;;16.66;55.69
13952;BME280;39535;52.192;9.886;2022-07-29T05:06:04;100844.72;;;16.64;55.85
13952;BME280;39535;52.192;9.886;2022-07-29T05:08:31;100837.75;;;16.63;55.81
13952;BME280;39535;52.192;9.886;2022-07-29T05:10:57;100836.00;;;16.62;55.59
13952;BME280;39535;52.192;9.886;2022-07-29T05:13:23;100838.50;;;16.67;55.63
13952;BME280;39535;52.192;9.886;2022-07-29T05:15:50;100839.34;;;16.67;55.77
13952;BME280;39535;52.192;9.886;2022-07-29T05:18:16;100838.31;;;16.72;55.77
13952;BME280;39535;52.192;9.886;2022-07-29T05:20:44;100838.19;;;16.75;55.89
13952;BME280;39535;52.192;9.886;2022-07-29T05:23:11;100841.75;;;16.74;55.88
13952;BME280;39535;52.192;9.886;2022-07-29T05:25:39;100842.59;;;16.74;56.14
13952;BME280;39535;52.192;9.886;2022-07-29T05:28:06;100825.66;;;16.81;56.22
13952;BME280;39535;52.192;9.886;2022-07-29T05:30:32;100833.78;;;16.75;56.18
13952;BME280;39535;52.192;9.886;2022-07-29T05:32:59;100838.06;;;16.78;56.24
13952;BME280;39535;52.192;9.886;2022-07-29T05:35:25;100821.34;;;16.79;56.24
13952;BME280;39535;52.192;9.886;2022-07-29T05:37:53;100820.41;;;16.81;56.15
13952;BME280;39535;52.192;9.886;2022-07-29T05:40:19;100816.78;;;16.84;56.15
13952;BME280;39535;52.192;9.886;2022-07-29T05:42:46;100815.63;;;16.91;56.07
13952;BME280;39535;52.192;9.886;2022-07-29T05:45:12;100816.38;;;16.95;55.91
13952;BME280;39535;52.192;9.886;2022-07-29T05:47:39;100812.78;;;16.96;56.21
13952;BME280;39535;52.192;9.886;2022-07-29T05:50:06;100811.69;;;17.01;56.07
13952;BME280;39535;52.192;9.886;2022-07-29T05:52:33;100815.00;;;17.06;56.03
13952;BME280;39535;52.192;9.886;2022-07-29T05:55:01;100818.75;;;17.01;56.04
13952;BME280;39535;52.192;9.886;2022-07-29T05:57:29;100824.09;;;16.99;56.31
13952;BME280;39535;52.192;9.886;2022-07-29T05:59:56;100816.13;;;17.01;56.31
13952;BME280;39535;52.192;9.886;2022-07-29T06:02:22;100818.63;;;17.04;56.29
13952;BME280;39535;52.192;9.886;2022-07-29T06:04:49;100816.78;;;17.06;56.37
13952;BME280;39535;52.192;9.886;2022-07-29T06:07:15;100822.81;;;17.10;56.36
13952;BME280;39535;52.192;9.886;2022-07-29T06:09:42;100821.16;;;17.07;56.26
13952;BME280;39535;52.192;9.886;2022-07-29T06:12:10;100820.06;;;17.13;56.50
13952;BME280;39535;52.192;9.886;2022-07-29T06:14:36;100821.75;;;17.14;56.42
13952;BME280;39535;52.192;9.886;2022-07-29T06:17:03;100824.19;;;17.18;56.17
13952;BME280;39535;52.192;9.886;2022-07-29T06:19:30;100825.69;;;17.25;56.01
13952;BME280;39535;52.192;9.886;2022-07-29T06:21:57;100823.72;;;17.31;56.00
13952;BME280;39535;52.192;9.886;2022-07-29T06:24:23;100823.16;;;17.44;55.89
13952;BME280;39535;52.192;9.886;2022-07-29T06:26:49;100826.44;;;17.50;55.78
13952;BME280;39535;52.192;9.886;2022-07-29T06:29:17;100834.00;;;17.59;55.52
13952;BME280;39535;52.192;9.886;2022-07-29T06:31:44;100845.09;;;17.67;55.46
13952;BME280;39535;52.192;9.886;2022-07-29T06:34:10;100849.31;;;17.71;54.94
13952;BME280;39535;52.192;9.886;2022-07-29T06:36:37;100864.91;;;17.77;54.78
13952;BME280;39535;52.192;9.886;2022-07-29T06:39:05;100863.69;;;17.86;54.52
13952;BME280;39535;52.192;9.886;2022-07-29T06:41:32;100874.13;;;17.89;54.74
13952;BME280;39535;52.192;9.886;2022-07-29T06:43:58;100869.34;;;17.97;54.45
13952;BME280;39535;52.192;9.886;2022-07-29T06:46:26;100878.97;;;18.00;54.57
13952;BME280;39535;52.192;9.886;2022-07-29T06:48:53;100883.25;;;18.02;54.66
13952;BME280;39535;52.192;9.886;2022-07-29T06:51:20;100866.28;;;18.08;54.80
13952;BME280;39535;52.192;9.886;2022-07-29T06:53:46;100872.94;;;18.17;54.56
13952;BME280;39535;52.192;9.886;2022-07-29T06:56:12;100879.69;;;18.24;54.23
13952;BME280;39535;52.192;9.886;2022-07-29T06:58:39;100876.75;;;18.30;54.25
13952;BME280;39535;52.192;9.886;2022-07-29T07:01:06;100889.91;;;18.32;54.05
13952;BME280;39535;52.192;9.886;2022-07-29T07:03:34;100880.75;;;18.39;54.58
13952;BME280;39535;52.192;9.886;2022-07-29T07:06:00;100869.91;;;18.45;54.14
13952;BME280;39535;52.192;9.886;2022-07-29T07:08:27;100882.84;;;18.51;54.00
13952;BME280;39535;52.192;9.886;2022-07-29T07:10:53;100882.50;;;18.59;53.71
13952;BME280;39535;52.192;9.886;2022-07-29T07:13:21;100896.53;;;18.61;53.39
13952;BME280;39535;52.192;9.886;2022-07-29T07:15:47;100898.97;;;18.65;53.66
13952;BME280;39535;52.192;9.886;2022-07-29T07:18:16;100894.19;;;18.74;53.41
13952;BME280;39535;52.192;9.886;2022-07-29T07:20:44;100889.53;;;18.79;53.14
13952;BME280;39535;52.192;9.886;2022-07-29T07:23:10;100905.88;;;18.89;53.67
13952;BME280;39535;52.192;9.886;2022-07-29T07:25:37;100907.19;;;18.99;53.30
13952;BME280;39535;52.192;9.886;2022-07-29T07:28:04;100904.94;;;19.09;53.16
13952;BME280;39535;52.192;9.886;2022-07-29T07:30:30;100915.19;;;19.16;52.82
13952;BME280;39535;52.192;9.886;2022-07-29T07:32:57;100919.19;;;19.25;52.86
13952;BME280;39535;52.192;9.886;2022-07-29T07:35:23;100930.56;;;19.27;52.84
13952;BME280;39535;52.192;9.886;2022-07-29T07:37:51;100950.66;;;19.31;52.32
13952;BME280;39535;52.192;9.886;2022-07-29T07:40:17;100959.47;;;19.32;51.66
13952;BME280;39535;52.192;9.886;2022-07-29T07:42:44;100977.56;;;19.41;51.97
13952;BME280;39535;52.192;9.886;2022-07-29T07:45:11;100968.66;;;19.42;51.65
13952;BME280;39535;52.192;9.886;2022-07-29T07:47:38;100973.91;;;19.43;51.81
13952;BME280;39535;52.192;9.886;2022-07-29T07:50:06;100971.13;;;19.47;51.85
13952;BME280;39535;52.192;9.886;2022-07-29T07:52:33;100965.59;;;19.51;51.69
13952;BME280;39535;52.192;9.886;2022-07-29T07:55:01;100967.03;;;19.58;51.46
13952;BME280;39535;52.192;9.886;2022-07-29T07:57:27;100967.53;;;19.67;51.34
13952;BME280;39535;52.192;9.886;2022-07-29T07:59:54;100979.53;;;19.74;50.88
13952;BME280;39535;52.192;9.886;2022-07-29T08:02:20;100985.25;;;19.83;50.98
13952;BME280;39535;52.192;9.886;2022-07-29T08:04:47;100993.06;;;19.87;51.16
13952;BME280;39535;52.192;9.886;2022-07-29T08:07:13;100988.31;;;19.93;50.61
13952;BME280;39535;52.192;9.886;2022-07-29T08:09:40;100989.94;;;19.96;50.42
13952;BME280;39535;52.192;9.886;2022-07-29T08:12:08;100998.53;;;20.01;50.42
13952;BME280;39535;52.192;9.886;2022-07-29T08:14:35;100985.06;;;20.06;50.81
13952;BME280;39535;52.192;9.886;2022-07-29T08:17:01;100987.56;;;20.09;50.49
13952;BME280;39535;52.192;9.886;2022-07-29T08:19:28;100995.28;;;20.13;50.86
13952;BME280;39535;52.192;9.886;2022-07-29T08:21:54;100988.88;;;20.17;51.17
13952;BME280;39535;52.192;9.886;2022-07-29T08:24:21;100991.38;;;20.20;50.29
13952;BME280;39535;52.192;9.886;2022-07-29T08:27:05;100997.41;;;20.24;51.03
13952;BME280;39535;52.192;9.886;2022-07-29T08:29:33;100991.00;;;20.28;50.81
13952;BME280;39535;52.192;9.886;2022-07-29T08:31:59;100982.09;;;20.29;50.70
13952;BME280;39535;52.192;9.886;2022-07-29T08:34:26;100991.53;;;20.35;50.54
13952;BME280;39535;52.192;9.886;2022-07-29T08:36:53;101008.00;;;20.41;50.05
13952;BME280;39535;52.192;9.886;2022-07-29T08:39:20;101022.66;;;20.49;49.86
13952;BME280;39535;52.192;9.886;2022-07-29T08:41:46;101016.34;;;20.51;50.56
13952;BME280;39535;52.192;9.886;2022-07-29T08:44:13;100989.66;;;20.54;50.91
13952;BME280;39535;52.192;9.886;2022-07-29T08:46:43;100993.66;;;20.63;50.26
13952;BME280;39535;52.192;9.886;2022-07-29T08:49:10;101020.56;;;20.73;50.03
13952;BME280;39535;52.192;9.886;2022-07-29T08:51:36;101021.97;;;20.80;49.78
13952;BME280;39535;52.192;9.886;2022-07-29T08:54:05;101033.13;;;20.87;49.33
13952;BME280;39535;52.192;9.886;2022-07-29T08:56:32;101045.13;;;20.94;49.14
13952;BME280;39535;52.192;9.886;2022-07-29T08:59:02;101038.56;;;21.01;49.98
13952;BME280;39535;52.192;9.886;2022-07-29T09:01:29;101030.72;;;21.15;49.33
13952;BME280;39535;52.192;9.886;2022-07-29T09:03:59;101040.16;;;21.21;49.35
13952;BME280;39535;52.192;9.886;2022-07-29T09:06:29;101043.78;;;21.36;49.50
13952;BME280;39535;52.192;9.886;2022-07-29T09:08:59;101048.34;;;21.50;48.61
13952;BME280;39535;52.192;9.886;2022-07-29T09:11:25;101051.28;;;21.61;48.22
13952;BME280;39535;52.192;9.886;2022-07-29T09:13:52;101048.72;;;21.75;49.02
13952;BME280;39535;52.192;9.886;2022-07-29T09:16:19;101078.78;;;21.92;47.51
13952;BME280;39535;52.192;9.886;2022-07-29T09:18:46;101083.69;;;21.99;47.14
13952;BME280;39535;52.192;9.886;2022-07-29T09:21:16;101094.06;;;22.04;47.00
13952;BME280;39535;52.192;9.886;2022-07-29T09:24:02;101110.59;;;22.09;46.61
13952;BME280;39535;52.192;9.886;2022-07-29T09:26:29;101070.16;;;22.04;48.87
13952;BME280;39535;52.192;9.886;2022-07-29T09:28:56;101047.00;;;22.06;48.66
13952;BME280;39535;52.192;9.886;2022-07-29T09:31:32;101073.63;;;22.20;46.77
13952;BME280;39535;52.192;9.886;2022-07-29T09:33:59;101113.22;;;22.27;47.13
13952;BME280;39535;52.192;9.886;2022-07-29T09:36:27;101106.13;;;22.41;46.67
13952;BME280;39535;52.192;9.886;2022-07-29T09:38:58;101102.88;;;22.52;46.61
13952;BME280;39535;52.192;9.886;2022-07-29T09:41:25;101115.63;;;22.62;46.05
13952;BME280;39535;52.192;9.886;2022-07-29T09:43:55;101086.44;;;22.60;46.71
13952;BME280;39535;52.192;9.886;2022-07-29T09:46:23;101098.78;;;22.61;46.50
13952;BME280;39535;52.192;9.886;2022-07-29T09:49:05;101103.59;;;22.70;45.33
13952;BME280;39535;52.192;9.886;2022-07-29T09:51:33;101106.03;;;22.73;46.29
13952;BME280;39535;52.192;9.886;2022-07-29T09:54:00;101121.69;;;22.79;45.22
13952;BME280;39535;52.192;9.886;2022-07-29T09:56:38;101129.47;;;22.83;45.35
13952;BME280;39535;52.192;9.886;2022-07-29T09:59:05;101135.56;;;22.85;45.41
13952;BME280;39535;52.192;9.886;2022-07-29T10:01:32;101124.75;;;22.88;45.35
13952;BME280;39535;52.192;9.886;2022-07-29T10:03:58;101104.19;;;22.90;46.01
13952;BME280;39535;52.192;9.886;2022-07-29T10:06:25;101107.63;;;22.92;46.56
13952;BME280;39535;52.192;9.886;2022-07-29T10:08:53;101087.78;;;22.97;46.18
13952;BME280;39535;52.192;9.886;2022-07-29T10:11:19;101124.13;;;23.13;44.96
13952;BME280;39535;52.192;9.886;2022-07-29T10:13:47;101117.56;;;23.18;44.80
13952;BME280;39535;52.192;9.886;2022-07-29T10:16:15;101149.94;;;23.27;44.45
13952;BME280;39535;52.192;9.886;2022-07-29T10:18:42;101136.13;;;23.34;45.37
13952;BME280;39535;52.192;9.886;2022-07-29T10:21:09;101126.91;;;23.40;44.69
13952;BME280;39535;52.192;9.886;2022-07-29T10:23:36;101152.25;;;23.47;44.18
13952;BME280;39535;52.192;9.886;2022-07-29T10:26:04;101155.38;;;23.54;44.46
13952;BME280;39535;52.192;9.886;2022-07-29T10:28:31;101155.28;;;23.55;44.73
13952;BME280;39535;52.192;9.886;2022-07-29T10:31:00;101161.19;;;23.60;44.07
13952;BME280;39535;52.192;9.886;2022-07-29T10:33:41;101147.97;;;23.59;44.00
13952;BME280;39535;52.192;9.886;2022-07-29T10:36:21;101155.19;;;23.57;44.09
13952;BME280;39535;52.192;9.886;2022-07-29T10:38:55;101160.41;;;23.58;44.18
13952;BME280;39535;52.192;9.886;2022-07-29T10:42:05;101141.75;;;23.58;43.84
13952;BME280;39535;52.192;9.886;2022-07-29T10:44:42;101157.88;;;23.57;44.24
13952;BME280;39535;52.192;9.886;2022-07-29T10:47:19;101149.88;;;23.57;44.29
13952;BME280;39535;52.192;9.886;2022-07-29T10:49:55;101152.63;;;23.55;44.10
13952;BME280;39535;52.192;9.886;2022-07-29T10:52:22;101155.38;;;23.54;43.81
13952;BME280;39535;52.192;9.886;2022-07-29T10:54:49;101149.97;;;23.55;44.33
13952;BME280;39535;52.192;9.886;2022-07-29T10:57:24;101147.28;;;23.55;44.14
13952;BME280;39535;52.192;9.886;2022-07-29T11:02:53;101131.84;;;23.60;44.80
13952;BME280;39535;52.192;9.886;2022-07-29T11:05:21;101131.09;;;23.58;44.34
13952;BME280;39535;52.192;9.886;2022-07-29T11:08:17;101151.66;;;23.56;44.40
13952;BME280;39535;52.192;9.886;2022-07-29T11:10:46;101125.75;;;23.58;44.72
13952;BME280;39535;52.192;9.886;2022-07-29T11:13:47;101133.41;;;23.65;43.83
13952;BME280;39535;52.192;9.886;2022-07-29T11:16:15;101136.34;;;23.60;44.66
13952;BME280;39535;52.192;9.886;2022-07-29T11:21:44;101154.59;;;23.66;44.06
13952;BME280;39535;52.192;9.886;2022-07-29T11:24:13;101140.25;;;23.69;44.07
13952;BME280;39535;52.192;9.886;2022-07-29T11:26:40;101149.84;;;23.71;44.36
13952;BME280;39535;52.192;9.886;2022-07-29T11:29:16;101143.47;;;23.74;44.09
13952;BME280;39535;52.192;9.886;2022-07-29T11:31:46;101154.88;;;23.76;43.69
13952;BME280;39535;52.192;9.886;2022-07-29T11:34:18;101151.28;;;23.77;43.82
13952;BME280;39535;52.192;9.886;2022-07-29T11:37:17;101145.59;;;23.83;43.92
13952;BME280;39535;52.192;9.886;2022-07-29T11:39:46;101149.03;;;23.85;43.70
13952;BME280;39535;52.192;9.886;2022-07-29T11:42:40;101155.28;;;23.84;43.41
13952;BME280;39535;52.192;9.886;2022-07-29T11:45:10;101166.72;;;23.86;42.93
13952;BME280;39535;52.192;9.886;2022-07-29T11:47:40;101151.59;;;23.87;43.71
13952;BME280;39535;52.192;9.886;2022-07-29T11:50:11;101151.47;;;23.88;43.74
13952;BME280;39535;52.192;9.886;2022-07-29T11:52:40;101159.28;;;23.91;43.33
13952;BME280;39535;52.192;9.886;2022-07-29T11:55:11;101149.00;;;23.99;43.66
13952;BME280;39535;52.192;9.886;2022-07-29T11:57:45;101156.81;;;24.03;43.03
13952;BME280;39535;52.192;9.886;2022-07-29T12:00:22;101154.78;;;24.06;42.88
13952;BME280;39535;52.192;9.886;2022-07-29T12:02:49;101173.34;;;24.08;43.18
13952;BME280;39535;52.192;9.886;2022-07-29T12:05:16;101165.06;;;24.12;42.98
13952;BME280;39535;52.192;9.886;2022-07-29T12:07:43;101168.38;;;24.16;42.78
13952;BME280;39535;52.192;9.886;2022-07-29T12:10:09;101176.19;;;24.19;42.57
13952;BME280;39535;52.192;9.886;2022-07-29T12:12:36;101171.13;;;24.29;42.96
13952;BME280;39535;52.192;9.886;2022-07-29T12:15:20;101153.75;;;24.36;42.99
13952;BME280;39535;52.192;9.886;2022-07-29T12:17:49;101162.97;;;24.45;42.32
13952;BME280;39535;52.192;9.886;2022-07-29T12:20:23;101173.94;;;24.54;42.35
13952;BME280;39535;52.192;9.886;2022-07-29T12:22:50;101170.94;;;24.59;41.98
13952;BME280;39535;52.192;9.886;2022-07-29T12:25:19;101183.88;;;24.65;42.08
13952;BME280;39535;52.192;9.886;2022-07-29T12:27:45;101178.13;;;24.71;41.87
13952;BME280;39535;52.192;9.886;2022-07-29T12:30:14;101183.94;;;24.78;41.98
13952;BME280;39535;52.192;9.886;2022-07-29T12:32:47;101188.13;;;24.82;41.28
13952;BME280;39535;52.192;9.886;2022-07-29T12:35:15;101211.09;;;24.85;40.86
13952;BME280;39535;52.192;9.886;2022-07-29T12:37:43;101197.41;;;24.89;41.96
13952;BME280;39535;52.192;9.886;2022-07-29T12:40:12;101185.38;;;24.96;41.94
13952;BME280;39535;52.192;9.886;2022-07-29T12:42:40;101193.38;;;24.96;41.74
13952;BME280;39535;52.192;9.886;2022-07-29T12:45:07;101203.75;;;25.01;41.76
13952;BME280;39535;52.192;9.886;2022-07-29T12:47:52;101192.63;;;25.07;41.48
13952;BME280;39535;52.192;9.886;2022-07-29T12:50:18;101196.94;;;25.10;41.46
13952;BME280;39535;52.192;9.886;2022-07-29T12:52:45;101172.78;;;25.11;41.88
13952;BME280;39535;52.192;9.886;2022-07-29T12:55:12;101188.50;;;25.16;41.20
13952;BME280;39535;52.192;9.886;2022-07-29T12:57:45;101183.81;;;25.20;41.97
13952;BME280;39535;52.192;9.886;2022-07-29T13:00:13;101154.28;;;25.21;42.64
13952;BME280;39535;52.192;9.886;2022-07-29T13:02:42;101161.06;;;25.27;41.60
13952;BME280;39535;52.192;9.886;2022-07-29T13:05:10;101174.31;;;25.28;42.02